Time;durP1;ratioP1;P1;durP2;ratioP2;P2;SDS_P1;SDS_P2;PMS_P1;PMS_P2;Temp;Humidity;BMP_temperature;BMP_pressure;BME280_temperature;BME280_humidity;BME280_pressure;Samples;Min_cycle;Max_cycle;Signal;HPM_P1;HPM_P2
2022/05/17 00:00:48;;;;;;;7.60;4.82;;;;;;;23.70;37.92;101624.81;5071388;28;20482;-75
2022/05/17 00:03:15;;;;;;;7.40;5.15;;;;;;;23.66;38.43;101623.41;5085470;28;20040;-75
2022/05/17 00:05:43;;;;;;;7.05;4.88;;;;;;;23.65;38.34;101621.69;5082024;28;20097;-75
2022/05/17 00:08:10;;;;;;;6.57;4.88;;;;;;;23.62;38.14;101622.91;5071470;28;20094;-75
2022/05/17 00:10:38;;;;;;;7.18;4.38;;;;;;;23.60;37.99;101621.31;5087322;28;20543;-75
2022/05/17 00:13:05;;;;;;;7.38;4.85;;;;;;;23.60;38.16;101626.88;5083364;28;20494;-75
2022/05/17 00:15:33;;;;;;;7.60;4.63;;;;;;;23.57;38.03;101628.06;5084828;28;20044;-75
2022/05/17 00:18:01;;;;;;;5.55;4.45;;;;;;;23.54;38.11;101625.66;5079007;28;20487;-75
2022/05/17 00:20:27;;;;;;;5.95;4.45;;;;;;;23.52;38.19;101617.50;5072071;28;20143;-75
2022/05/17 00:22:54;;;;;;;5.82;4.15;;;;;;;23.50;38.76;101616.78;5068471;28;20589;-75
2022/05/17 00:25:23;;;;;;;8.07;4.63;;;;;;;23.51;38.52;101614.88;5076378;28;20040;-75
2022/05/17 00:27:50;;;;;;;6.72;4.55;;;;;;;23.47;38.58;101610.69;5093564;28;20130;-75
2022/05/17 00:30:16;;;;;;;6.20;5.03;;;;;;;23.44;38.42;101606.34;5077997;28;20113;-75
2022/05/17 00:32:43;;;;;;;5.90;4.47;;;;;;;23.43;38.78;101600.97;5079795;28;20083;-75
2022/05/17 00:35:10;;;;;;;6.53;4.55;;;;;;;23.40;38.70;101595.75;5088449;28;20051;-75
2022/05/17 00:37:37;;;;;;;6.53;4.38;;;;;;;23.37;38.37;101596.97;5074178;28;20071;-75
2022/05/17 00:40:05;;;;;;;6.75;5.05;;;;;;;23.34;38.91;101604.75;5083331;28;20110;-75
2022/05/17 00:42:32;;;;;;;6.72;4.90;;;;;;;23.28;38.51;101586.91;5078989;28;20442;-75
2022/05/17 00:44:58;;;;;;;7.32;5.35;;;;;;;23.25;38.79;101600.19;5088603;28;20060;-75
2022/05/17 00:47:37;;;;;;;7.97;5.07;;;;;;;23.25;39.44;101612.16;5074756;28;20063;-74
2022/05/17 00:50:13;;;;;;;7.70;5.15;;;;;;;23.21;39.67;101598.81;5062706;28;20082;-75
2022/05/17 00:52:45;;;;;;;6.85;4.75;;;;;;;23.15;39.01;101598.41;5077514;28;20125;-75
2022/05/17 00:55:19;;;;;;;7.30;4.95;;;;;;;23.11;39.96;101604.47;5079924;28;20132;-75
2022/05/17 00:57:55;;;;;;;7.30;4.88;;;;;;;23.08;39.96;101604.78;5070856;28;20067;-75
2022/05/17 01:00:22;;;;;;;6.35;4.50;;;;;;;23.02;38.92;101602.69;5071905;28;20079;-75
2022/05/17 01:02:53;;;;;;;5.45;4.05;;;;;;;23.01;39.17;101606.50;5082830;28;20571;-75
2022/05/17 01:05:23;;;;;;;7.32;4.47;;;;;;;22.97;39.12;101610.66;5070382;28;20087;-75
2022/05/17 01:07:53;;;;;;;7.20;4.78;;;;;;;22.94;39.52;101609.06;5081019;28;20048;-75
2022/05/17 01:10:21;;;;;;;6.25;4.45;;;;;;;22.92;39.60;101604.72;5080932;28;20144;-75
2022/05/17 01:14:57;;;;;;;5.75;4.28;;;;;;;22.89;39.48;101608.69;5090643;28;20138;-75
2022/05/17 01:15:54;;;;;;;7.40;4.90;;;;;;;22.88;40.38;101615.25;5086428;28;20044;-75
2022/05/17 01:18:21;;;;;;;6.78;4.50;;;;;;;22.85;40.09;101606.41;5072083;28;20040;-75
2022/05/17 01:20:48;;;;;;;6.30;4.50;;;;;;;22.85;39.73;101610.03;5084157;28;20144;-75
2022/05/17 01:23:14;;;;;;;7.05;4.78;;;;;;;22.83;39.67;101603.78;5059223;28;20123;-75
2022/05/17 01:25:41;;;;;;;6.40;4.85;;;;;;;22.82;39.76;101602.06;5080513;28;20094;-75
2022/05/17 01:28:16;;;;;;;7.20;4.97;;;;;;;22.83;40.21;101601.03;5081364;28;20044;-75
2022/05/17 01:30:43;;;;;;;7.72;4.85;;;;;;;22.77;40.19;101604.44;5085629;28;20135;-75
2022/05/17 01:33:14;;;;;;;7.55;5.07;;;;;;;22.77;39.70;101610.00;5079786;28;20044;-75
2022/05/17 01:35:41;;;;;;;7.03;4.50;;;;;;;22.73;39.57;101626.00;5091351;28;20127;-75
2022/05/17 01:38:08;;;;;;;6.07;4.72;;;;;;;22.70;39.80;101608.88;5083429;28;20135;-76
2022/05/17 01:40:36;;;;;;;6.10;4.80;;;;;;;22.67;40.11;101609.19;5086946;28;20044;-75
2022/05/17 01:43:02;;;;;;;7.43;5.18;;;;;;;22.64;39.76;101604.88;5084056;28;20044;-75
2022/05/17 01:45:32;;;;;;;7.63;5.35;;;;;;;22.63;40.48;101605.03;5085708;28;20118;-75
2022/05/17 01:47:59;;;;;;;7.03;4.25;;;;;;;22.58;40.09;101599.09;5066693;28;20075;-75
2022/05/17 01:50:26;;;;;;;7.30;4.70;;;;;;;22.55;40.36;101597.53;5088992;28;20254;-75
2022/05/17 01:52:52;;;;;;;6.53;4.80;;;;;;;22.52;40.21;101600.63;5082206;28;20072;-75
2022/05/17 01:55:19;;;;;;;7.78;4.93;;;;;;;22.49;40.12;101600.94;5081908;28;20505;-75
2022/05/17 01:57:46;;;;;;;7.35;5.20;;;;;;;22.46;40.01;101597.63;5071802;28;20538;-75
2022/05/17 02:00:19;;;;;;;7.18;4.95;;;;;;;22.45;40.11;101599.53;5077935;28;20063;-75
2022/05/17 02:02:46;;;;;;;7.93;4.60;;;;;;;22.40;40.41;101594.47;5088781;28;20134;-75
2022/05/17 02:05:15;;;;;;;6.57;4.88;;;;;;;22.37;40.15;101597.56;5085918;28;20044;-75
2022/05/17 02:07:42;;;;;;;5.60;4.65;;;;;;;22.33;39.86;101606.34;5086380;28;20048;-75
2022/05/17 02:10:09;;;;;;;7.93;4.60;;;;;;;22.30;40.54;101604.78;5087401;28;20530;-75
2022/05/17 02:12:36;;;;;;;6.55;4.88;;;;;;;22.25;40.75;101604.38;5091342;28;20125;-75
2022/05/17 02:15:05;;;;;;;7.47;5.10;;;;;;;22.24;40.29;101601.75;5089170;28;20518;-75
2022/05/17 02:17:35;;;;;;;6.93;4.78;;;;;;;22.19;40.63;101595.84;5075009;28;20140;-75
2022/05/17 02:20:07;;;;;;;6.55;4.55;;;;;;;22.19;40.86;101601.38;5073118;28;20049;-75
2022/05/17 02:22:34;;;;;;;7.30;4.93;;;;;;;22.10;40.83;101608.75;5084640;28;20106;-75
2022/05/17 02:25:01;;;;;;;6.15;4.88;;;;;;;22.08;41.03;101616.31;5080955;28;20056;-76
2022/05/17 02:27:28;;;;;;;6.13;5.00;;;;;;;22.07;40.56;101617.38;5086442;28;20559;-75
2022/05/17 02:29:55;;;;;;;6.95;4.68;;;;;;;22.04;40.66;101625.97;5069940;28;20057;-75
2022/05/17 02:32:22;;;;;;;6.05;4.93;;;;;;;21.99;41.04;101618.13;5081526;28;21932;-75
2022/05/17 02:34:48;;;;;;;7.63;5.30;;;;;;;21.97;40.81;101617.47;5085189;28;20106;-75
2022/05/17 02:37:15;;;;;;;7.50;4.82;;;;;;;21.96;40.87;101612.03;5087156;28;20170;-75
2022/05/17 02:39:42;;;;;;;7.72;5.40;;;;;;;21.95;41.28;101618.59;5092418;28;20044;-75
2022/05/17 02:42:09;;;;;;;7.32;4.90;;;;;;;21.92;41.09;101614.25;5068011;28;20094;-75
2022/05/17 02:44:35;;;;;;;6.32;4.70;;;;;;;21.90;40.66;101613.56;5085478;28;20044;-75
2022/05/17 02:47:02;;;;;;;7.22;4.93;;;;;;;21.88;41.28;101611.97;5085018;28;20044;-75
2022/05/17 02:49:29;;;;;;;7.45;5.22;;;;;;;21.85;40.91;101615.03;5092440;28;20040;-75
2022/05/17 02:51:55;;;;;;;6.63;5.00;;;;;;;21.83;41.30;101617.06;5091182;28;20087;-75
2022/05/17 02:54:22;;;;;;;7.70;5.32;;;;;;;21.80;41.36;101620.16;5081298;28;20048;-75
2022/05/17 02:56:48;;;;;;;5.55;4.65;;;;;;;21.77;41.19;101618.59;5087986;28;20079;-75
2022/05/17 02:59:18;;;;;;;5.75;4.82;;;;;;;21.75;41.16;101622.50;5066085;28;20040;-75
2022/05/17 03:01:45;;;;;;;7.15;4.88;;;;;;;21.72;41.37;101629.25;5072883;28;20059;-75
2022/05/17 03:04:13;;;;;;;5.55;4.38;;;;;;;21.70;41.28;101627.66;5078422;28;20644;-76
2022/05/17 03:06:40;;;;;;;6.65;5.22;;;;;;;21.68;41.50;101627.81;5079644;28;20128;-75
2022/05/17 03:09:08;;;;;;;5.97;4.55;;;;;;;21.65;41.46;101633.66;5087425;28;20071;-75
2022/05/17 03:11:35;;;;;;;7.38;4.95;;;;;;;21.63;41.22;101627.41;5065594;28;20052;-75
2022/05/17 03:14:02;;;;;;;7.10;4.88;;;;;;;21.62;41.32;101628.44;5084013;28;20052;-75
2022/05/17 03:16:30;;;;;;;7.32;4.93;;;;;;;21.60;41.60;101631.34;5077628;28;20049;-76
2022/05/17 03:18:58;;;;;;;6.85;5.00;;;;;;;21.57;41.59;101636.34;5078405;28;20079;-75
2022/05/17 03:21:25;;;;;;;7.63;5.22;;;;;;;21.54;41.24;101631.97;5078927;28;20040;-75
2022/05/17 03:23:53;;;;;;;9.27;5.57;;;;;;;21.52;41.57;101642.31;5086328;28;20072;-75
2022/05/17 03:26:20;;;;;;;9.48;4.85;;;;;;;21.49;41.46;101650.94;5084096;28;20444;-75
2022/05/17 03:28:47;;;;;;;6.22;5.43;;;;;;;21.46;41.78;101644.81;5086703;28;20122;-75
2022/05/17 03:31:14;;;;;;;6.82;4.53;;;;;;;21.44;42.07;101644.97;5083344;28;20052;-75
2022/05/17 03:33:41;;;;;;;6.72;5.10;;;;;;;21.43;41.55;101654.28;5080535;28;20127;-75
2022/05/17 03:36:09;;;;;;;7.68;5.22;;;;;;;21.41;41.64;101649.94;5077967;28;20143;-75
2022/05/17 03:38:37;;;;;;;7.65;5.07;;;;;;;21.39;42.00;101647.34;5081914;28;20101;-75
2022/05/17 03:41:04;;;;;;;7.20;5.53;;;;;;;21.37;41.90;101646.63;5086637;28;20131;-75
2022/05/17 03:43:30;;;;;;;6.63;4.97;;;;;;;21.35;41.84;101651.41;5086682;28;20036;-75
2022/05/17 03:45:57;;;;;;;11.40;5.60;;;;;;;21.33;42.42;101649.84;5082190;28;20132;-75
2022/05/17 03:48:26;;;;;;;9.40;5.35;;;;;;;21.32;42.23;101643.47;5080135;28;20233;-75
2022/05/17 03:50:53;;;;;;;7.10;5.53;;;;;;;21.29;41.90;101652.03;5058531;28;20101;-75
2022/05/17 03:53:20;;;;;;;6.45;5.22;;;;;;;21.29;42.15;101651.16;5083886;28;20065;-75
2022/05/17 03:55:47;;;;;;;7.60;5.35;;;;;;;21.25;41.98;101656.09;5077134;28;20131;-75
2022/05/17 03:58:13;;;;;;;7.55;5.30;;;;;;;21.25;42.27;101661.63;5080935;28;20048;-75
2022/05/17 04:00:40;;;;;;;8.00;5.65;;;;;;;21.23;42.33;101658.19;5090649;28;20670;-75
2022/05/17 04:03:07;;;;;;;7.53;5.70;;;;;;;21.21;42.16;101658.31;5078161;28;20075;-75
2022/05/17 04:05:34;;;;;;;7.13;5.53;;;;;;;21.20;42.63;101661.22;5065327;28;20052;-75
2022/05/17 04:08:01;;;;;;;7.60;5.30;;;;;;;21.18;42.71;101661.38;5090220;28;20469;-75
2022/05/17 04:10:28;;;;;;;8.18;5.22;;;;;;;21.18;42.39;101663.25;5086782;28;20044;-75
2022/05/17 04:12:54;;;;;;;8.05;5.32;;;;;;;21.17;42.70;101667.03;5080268;28;20762;-75
2022/05/17 04:15:23;;;;;;;6.88;4.80;;;;;;;21.18;42.70;101663.25;5071935;28;20120;-75
2022/05/17 04:17:54;;;;;;;7.18;5.80;;;;;;;21.16;43.02;101660.66;5074012;28;20044;-75
2022/05/17 04:20:21;;;;;;;6.53;5.35;;;;;;;21.16;42.89;101671.69;5085540;28;20048;-75
2022/05/17 04:22:49;;;;;;;7.63;5.70;;;;;;;21.17;43.09;101661.53;5087472;28;20468;-75
2022/05/17 04:25:19;;;;;;;7.07;5.72;;;;;;;21.16;42.93;101663.41;5074300;28;20041;-74
2022/05/17 04:27:47;;;;;;;8.52;5.70;;;;;;;21.15;43.09;101666.31;5057676;28;20647;-75
2022/05/17 04:30:14;;;;;;;8.07;5.22;;;;;;;21.16;43.28;101670.81;5075427;28;20486;-75
2022/05/17 04:32:40;;;;;;;6.43;5.05;;;;;;;21.16;42.92;101670.81;5082961;28;20136;-75
2022/05/17 04:35:08;;;;;;;9.85;6.25;;;;;;;21.17;42.98;101670.69;5084610;28;20463;-75
2022/05/17 04:37:36;;;;;;;7.38;4.78;;;;;;;21.18;42.91;101668.78;5087428;28;20521;-75
2022/05/17 04:40:11;;;;;;;8.60;5.63;;;;;;;21.21;43.56;101666.59;5059227;28;20091;-75
2022/05/17 04:42:39;;;;;;;6.38;5.05;;;;;;;21.20;43.05;101669.50;5051507;28;20200;-75
2022/05/17 04:45:07;;;;;;;8.63;5.25;;;;;;;21.22;43.18;101671.13;5091208;28;20608;-75
2022/05/17 04:47:43;;;;;;;7.88;5.50;;;;;;;21.26;43.88;101672.53;5081170;28;20049;-75
2022/05/17 04:50:12;;;;;;;8.68;5.72;;;;;;;21.26;43.61;101667.00;5081393;28;20049;-75
2022/05/17 04:52:39;;;;;;;8.07;5.18;;;;;;;21.27;43.44;101667.88;5068394;28;20047;-75
2022/05/17 04:55:07;;;;;;;6.93;4.88;;;;;;;21.30;43.79;101673.13;5084860;28;20130;-75
2022/05/17 04:57:35;;;;;;;7.72;5.10;;;;;;;21.31;43.63;101676.75;5087446;28;20048;-75
2022/05/17 05:00:15;;;;;;;8.43;5.10;;;;;;;21.35;44.00;101669.88;5083007;28;20104;-75
2022/05/17 05:02:42;;;;;;;7.18;5.30;;;;;;;21.33;44.03;101675.56;5082696;28;20649;-75
2022/05/17 05:05:09;;;;;;;8.20;5.15;;;;;;;21.35;43.53;101670.75;5081425;28;20692;-75
2022/05/17 05:07:35;;;;;;;7.65;5.50;;;;;;;21.37;44.03;101676.13;5082734;28;20050;-75
2022/05/17 05:10:03;;;;;;;10.65;5.45;;;;;;;21.40;44.02;101684.13;5083394;28;20094;-74
2022/05/17 05:12:30;;;;;;;7.53;5.78;;;;;;;;;;5070934;28;20068;-73
2022/05/17 05:14:57;;;;;;;8.60;5.45;;;;;;;21.44;43.64;101685.53;5091079;28;20058;-74
2022/05/17 05:17:24;;;;;;;8.15;5.30;;;;;;;21.47;43.90;101691.66;5077585;28;20135;-74
2022/05/17 05:19:51;;;;;;;8.32;5.53;;;;;;;21.49;43.48;101685.97;5075262;28;20055;-74
2022/05/17 05:22:17;;;;;;;7.68;5.85;;;;;;;21.51;44.09;101684.78;5080668;28;20491;-74
2022/05/17 05:24:44;;;;;;;8.65;5.85;;;;;;;21.52;43.56;101686.53;5084495;28;20056;-74
2022/05/17 05:27:11;;;;;;;7.05;5.65;;;;;;;21.54;43.96;101689.13;5083946;28;20044;-74
2022/05/17 05:29:37;;;;;;;7.72;5.60;;;;;;;21.55;43.83;101691.75;5076323;28;20056;-74
2022/05/17 05:32:04;;;;;;;9.05;5.57;;;;;;;21.56;43.87;101693.50;5086898;28;20075;-74
2022/05/17 05:34:31;;;;;;;8.00;5.70;;;;;;;21.58;43.98;101696.06;5085298;28;20517;-74
2022/05/17 05:36:58;;;;;;;8.48;6.20;;;;;;;21.60;43.35;101700.44;5083876;28;20116;-74
2022/05/17 05:39:24;;;;;;;7.72;6.07;;;;;;;21.61;43.58;101707.72;5084546;28;20056;-73
2022/05/17 05:41:52;;;;;;;6.22;5.03;;;;;;;21.62;44.01;101706.69;5083590;28;20052;-74
2022/05/17 05:44:20;;;;;;;7.60;5.82;;;;;;;21.64;43.74;101704.66;5089452;28;20063;-73
2022/05/17 05:46:47;;;;;;;8.57;5.80;;;;;;;21.67;43.70;101714.50;5082453;28;20052;-75
2022/05/17 05:49:14;;;;;;;6.53;5.25;;;;;;;21.68;43.83;101710.72;5077586;28;20049;-74
2022/05/17 05:51:40;;;;;;;6.93;5.30;;;;;;;21.73;43.83;101718.56;5079623;28;20499;-74
2022/05/17 05:54:07;;;;;;;7.35;5.72;;;;;;;21.76;43.96;101709.94;5077580;28;20116;-74
2022/05/17 05:56:34;;;;;;;7.95;5.97;;;;;;;21.78;43.84;101707.91;5070354;28;20140;-75
2022/05/17 05:59:01;;;;;;;8.65;6.00;;;;;;;21.82;44.17;101704.69;5085331;28;20455;-75
2022/05/17 06:01:27;;;;;;;9.10;5.75;;;;;;;21.86;43.72;101699.72;5087149;28;20048;-74
2022/05/17 06:03:54;;;;;;;7.70;5.93;;;;;;;21.88;44.19;101698.53;5082396;28;20063;-75
2022/05/17 06:06:21;;;;;;;7.88;5.72;;;;;;;21.92;43.66;101702.72;5081547;28;20048;-74
2022/05/17 06:08:47;;;;;;;6.95;5.55;;;;;;;21.94;43.98;101708.09;5086481;28;20052;-74
2022/05/17 06:11:15;;;;;;;7.28;5.60;;;;;;;21.95;43.74;101696.91;5087371;28;20044;-74
2022/05/17 06:13:42;;;;;;;7.22;5.43;;;;;;;21.98;43.82;101704.06;5096204;28;20140;-74
2022/05/17 06:16:09;;;;;;;8.52;5.30;;;;;;;22.00;43.89;101700.06;5090511;28;20045;-73
2022/05/17 06:18:35;;;;;;;8.27;5.90;;;;;;;22.05;44.11;101710.69;5086249;28;20062;-74
2022/05/17 06:21:02;;;;;;;9.77;5.88;;;;;;;22.10;43.58;101712.97;5096273;28;20048;-74
2022/05/17 06:23:30;;;;;;;9.30;5.93;;;;;;;22.11;43.33;101718.34;5094136;28;20098;-75
2022/05/17 06:25:57;;;;;;;7.53;5.57;;;;;;;22.16;43.45;101715.09;5085726;28;20075;-74
2022/05/17 06:28:23;;;;;;;8.02;5.47;;;;;;;22.19;43.53;101715.69;5072815;28;20045;-74
2022/05/17 06:30:50;;;;;;;7.07;5.55;;;;;;;22.24;43.55;101723.50;5089258;28;20139;-74
2022/05/17 06:33:17;;;;;;;7.68;5.43;;;;;;;22.28;43.36;101720.28;5081398;28;20454;-74
2022/05/17 06:35:45;;;;;;;8.93;5.57;;;;;;;22.34;43.08;101711.31;5071271;28;20052;-74
2022/05/17 06:38:11;;;;;;;7.88;5.80;;;;;;;22.40;43.23;101724.53;5082292;28;20044;-74
2022/05/17 06:40:38;;;;;;;7.90;5.88;;;;;;;22.46;43.61;101713.88;5081200;28;20053;-74
2022/05/17 06:43:05;;;;;;;9.10;5.95;;;;;;;22.50;43.07;101709.75;5062540;28;20718;-74
2022/05/17 06:45:33;;;;;;;8.93;5.53;;;;;;;22.54;43.07;101717.59;5069878;28;20546;-75
2022/05/17 06:48:02;;;;;;;7.90;6.20;;;;;;;22.60;43.23;101718.84;5082377;28;20131;-74
2022/05/17 06:50:31;;;;;;;8.98;6.03;;;;;;;22.63;43.00;101724.06;5089702;28;20052;-73
2022/05/17 06:52:58;;;;;;;9.35;5.43;;;;;;;22.66;43.09;101718.19;5087790;28;20048;-73
2022/05/17 06:55:25;;;;;;;8.05;5.75;;;;;;;22.68;42.95;101717.00;5064956;28;20118;-74
2022/05/17 06:57:52;;;;;;;7.10;5.22;;;;;;;22.74;43.15;101721.06;5078016;28;20399;-75
2022/05/17 07:00:19;;;;;;;9.43;5.80;;;;;;;22.79;43.19;101732.53;5080381;28;20139;-74
2022/05/17 07:02:47;;;;;;;8.70;5.38;;;;;;;22.83;42.86;101727.53;5067121;28;20604;-74
2022/05/17 07:05:14;;;;;;;8.45;5.05;;;;;;;22.89;42.82;101726.91;5084683;28;20087;-73
2022/05/17 07:07:40;;;;;;;9.85;5.38;;;;;;;22.95;42.78;101723.47;5081379;28;20114;-73
2022/05/17 07:13:08;;;;;;;6.70;4.97;;;;;;;23.13;42.91;101729.84;5087179;28;20127;-74
2022/05/17 07:15:43;;;;;;;6.72;4.78;;;;;;;23.29;42.67;101727.19;5076732;28;20395;-74
2022/05/17 07:18:12;;;;;;;8.35;5.10;;;;;;;23.40;43.11;101728.78;5081560;28;20052;-73
2022/05/17 07:20:40;;;;;;;7.50;4.60;;;;;;;23.52;42.66;101733.06;5082921;28;20079;-74
2022/05/17 07:23:06;;;;;;;8.90;4.78;;;;;;;23.65;42.56;101733.44;5077141;28;20130;-73
2022/05/17 07:25:36;;;;;;;6.88;4.38;;;;;;;23.80;42.02;101737.31;5078817;28;20068;-72
2022/05/17 07:28:03;;;;;;;8.73;4.75;;;;;;;23.94;41.97;101735.84;5069342;28;20098;-74
2022/05/17 07:30:33;;;;;;;6.68;4.43;;;;;;;24.09;42.22;101731.38;5083342;28;20068;-73
2022/05/17 07:33:00;;;;;;;9.00;4.53;;;;;;;24.22;42.11;101730.91;5063142;28;20095;-74
2022/05/17 07:35:27;;;;;;;6.65;4.75;;;;;;;24.36;41.63;101729.38;5079114;28;20056;-74
2022/05/17 07:37:53;;;;;;;6.55;4.45;;;;;;;24.50;41.55;101740.69;5080926;28;20098;-73
2022/05/17 07:40:20;;;;;;;7.05;4.60;;;;;;;24.65;41.60;101738.09;5070459;28;20074;-73
2022/05/17 07:42:48;;;;;;;9.00;4.72;;;;;;;24.79;41.35;101729.06;5088408;28;20505;-73
2022/05/17 07:45:15;;;;;;;8.48;5.40;;;;;;;24.96;41.00;101741.06;5083295;28;20105;-73
2022/05/17 07:47:42;;;;;;;8.50;4.85;;;;;;;25.12;41.14;101746.59;5080998;28;20497;-73
2022/05/17 07:50:09;;;;;;;7.57;4.88;;;;;;;25.29;40.98;101741.88;5085629;28;20083;-73
2022/05/17 07:52:36;;;;;;;7.85;5.10;;;;;;;25.47;40.39;101747.22;5066316;28;20072;-73
2022/05/17 07:55:05;;;;;;;9.18;4.60;;;;;;;25.62;40.15;101734.34;5080094;28;20079;-74
2022/05/17 07:57:31;;;;;;;8.00;5.15;;;;;;;25.77;39.74;101740.91;5051875;28;20044;-73
2022/05/17 07:59:58;;;;;;;7.97;4.85;;;;;;;25.92;39.14;101746.59;5084909;28;20048;-73
2022/05/17 08:02:25;;;;;;;7.05;5.15;;;;;;;26.06;39.30;101755.03;5077203;28;20053;-73
2022/05/17 08:04:51;;;;;;;7.85;5.38;;;;;;;26.18;38.89;101749.06;5078668;28;20076;-74
2022/05/17 08:07:18;;;;;;;10.20;5.25;;;;;;;26.30;38.54;101750.41;5071304;28;20045;-73
2022/05/17 08:09:45;;;;;;;7.68;5.28;;;;;;;26.39;38.64;101752.97;5083029;28;20048;-73
2022/05/17 08:12:18;;;;;;;8.27;5.22;;;;;;;26.48;38.14;101748.19;5080941;28;20121;-74
2022/05/17 08:14:45;;;;;;;8.82;5.35;;;;;;;26.56;38.39;101753.72;5081970;28;20131;-74
2022/05/17 08:17:12;;;;;;;7.40;5.00;;;;;;;26.65;38.04;101752.59;5080759;28;20063;-73
2022/05/17 08:19:39;;;;;;;7.53;4.65;;;;;;;26.73;37.79;101752.53;5088496;28;20082;-73
2022/05/17 08:22:10;;;;;;;11.82;5.63;;;;;;;26.83;37.92;101752.28;5079805;28;20059;-75
2022/05/17 08:27:32;;;;;;;7.85;4.78;;;;;;;26.93;37.60;101752.94;5066066;28;20135;-75
2022/05/17 08:30:00;;;;;;;7.47;5.30;;;;;;;27.01;37.34;101754.78;5088987;28;20051;-75
2022/05/17 08:35:26;;;;;;;7.97;4.95;;;;;;;27.11;37.38;101756.22;5044361;28;20383;-74
2022/05/17 08:37:52;;;;;;;8.18;5.28;;;;;;;27.17;36.86;101757.41;5084785;28;20088;-74
2022/05/17 08:40:22;;;;;;;8.40;4.88;;;;;;;27.24;36.88;101764.84;5076013;28;20086;-75
2022/05/17 08:43:16;;;;;;;8.75;5.43;;;;;;;27.26;36.47;101759.06;5074607;28;20048;-76
2022/05/17 08:46:17;;;;;;;8.25;4.80;;;;;;;27.30;36.21;101767.91;5066213;28;20048;-74
2022/05/17 08:48:52;;;;;;;7.85;4.75;;;;;;;27.34;36.45;101761.78;5084412;28;20058;-75
2022/05/17 08:51:33;;;;;;;7.50;4.53;;;;;;;27.38;36.12;101773.41;5076524;28;20054;-75
2022/05/17 08:54:00;;;;;;;8.98;4.70;;;;;;;27.38;36.45;101773.41;5086072;28;20123;-74
2022/05/17 08:56:29;;;;;;;7.43;4.75;;;;;;;27.41;36.25;101768.31;5078410;28;20554;-75
2022/05/17 08:58:56;;;;;;;6.55;4.72;;;;;;;27.41;36.36;101770.25;5082567;28;20117;-75
2022/05/17 09:01:28;;;;;;;8.77;4.60;;;;;;;27.45;35.96;101769.66;5065234;28;20458;-75
2022/05/17 09:04:14;;;;;;;6.78;4.57;;;;;;;27.48;35.54;101768.41;5082744;28;20080;-74
2022/05/17 09:07:09;;;;;;;6.30;3.92;;;;;;;27.51;35.75;101762.44;5091346;28;20055;-73
2022/05/17 09:10:05;;;;;;;7.05;4.22;;;;;;;27.52;35.51;101755.81;5070133;28;20444;-75
2022/05/17 09:12:52;;;;;;;5.88;4.05;;;;;;;27.60;35.46;101755.75;5068166;28;20052;-74
2022/05/17 09:15:19;;;;;;;8.10;4.30;;;;;;;27.59;35.94;101759.63;5085238;28;20131;-75
2022/05/17 09:17:47;;;;;;;7.68;4.18;;;;;;;27.64;35.78;101760.78;5083653;28;20561;-74
2022/05/17 09:20:19;;;;;;;7.28;3.88;;;;;;;27.71;35.28;101760.84;5085120;28;20052;-74
2022/05/17 09:22:46;;;;;;;7.40;3.35;;;;;;;27.70;34.84;101759.13;5085389;28;20139;-74
2022/05/17 09:25:43;;;;;;;4.50;2.90;;;;;;;27.80;34.25;101762.50;5085792;28;20048;-74
2022/05/17 09:28:10;;;;;;;6.22;3.63;;;;;;;27.82;34.98;101756.72;5068066;28;20075;-73
2022/05/17 09:30:38;;;;;;;4.47;2.97;;;;;;;27.88;34.67;101755.94;5087721;28;20048;-74
2022/05/17 09:33:15;;;;;;;5.68;3.05;;;;;;;27.98;34.02;101753.72;5084348;28;20097;-73
2022/05/17 09:35:57;;;;;;;5.32;3.40;;;;;;;28.03;33.82;101754.84;5087683;28;20131;-74
2022/05/17 09:38:24;;;;;;;5.50;3.00;;;;;;;28.05;34.72;101751.00;5067901;28;20521;-74
2022/05/17 09:40:58;;;;;;;4.40;2.55;;;;;;;28.13;34.26;101753.69;5086267;28;20125;-74
2022/05/17 09:43:42;;;;;;;3.92;2.67;;;;;;;28.23;33.63;101755.16;5080482;28;20076;-75
2022/05/17 09:46:17;;;;;;;6.00;2.10;;;;;;;28.31;33.13;101759.75;5085132;28;20079;-75
2022/05/17 09:54:44;;;;;;;3.50;2.15;;;;;;;28.53;32.68;101755.03;5085304;28;20134;-75
2022/05/17 09:57:16;;;;;;;5.68;2.58;;;;;;;28.60;33.03;101758.78;5086170;28;20497;-74
2022/05/17 09:59:47;;;;;;;5.30;2.75;;;;;;;28.66;32.42;101756.03;5089203;28;20076;-75
2022/05/17 10:02:28;;;;;;;4.87;2.37;;;;;;;28.75;32.19;101754.84;5084139;28;20127;-75
2022/05/17 10:04:57;;;;;;;4.65;2.65;;;;;;;28.77;32.43;101754.69;5080247;28;20050;-75
2022/05/17 10:07:27;;;;;;;5.72;2.78;;;;;;;28.86;31.88;101747.03;5092581;28;20119;-76
2022/05/17 10:09:54;;;;;;;5.65;2.38;;;;;;;28.88;32.11;101745.78;5071266;28;20101;-75
2022/05/17 10:12:36;;;;;;;3.90;1.58;;;;;;;28.96;30.35;101741.97;5066972;28;20119;-77
2022/05/17 10:15:10;;;;;;;3.60;1.80;;;;;;;28.97;30.78;101738.97;5080460;28;20052;-77
2022/05/17 10:17:43;;;;;;;3.40;1.70;;;;;;;29.01;30.82;101734.69;5093476;28;20414;-78
2022/05/17 10:20:21;;;;;;;3.08;1.55;;;;;;;29.04;30.67;101731.50;5094095;28;20470;-77
2022/05/17 10:23:09;;;;;;;3.15;1.58;;;;;;;29.06;29.82;101732.16;5072857;28;20333;-78
2022/05/17 10:25:44;;;;;;;4.47;2.08;;;;;;;29.07;30.40;101728.28;5093213;28;20044;-79
2022/05/17 10:28:18;;;;;;;6.60;2.53;;;;;;;29.08;30.89;101726.34;5092688;28;20048;-79
2022/05/17 10:30:52;;;;;;;6.82;2.10;;;;;;;29.05;31.07;101723.97;5080685;28;20051;-80
2022/05/17 10:33:35;;;;;;;3.83;1.92;;;;;;;29.08;30.57;101723.56;5091451;28;20075;-79
2022/05/17 10:36:08;;;;;;;6.15;1.85;;;;;;;29.06;29.99;101720.13;5085279;28;20052;-79
2022/05/17 10:38:44;;;;;;;4.50;2.10;;;;;;;29.06;30.13;101712.59;5092119;28;20093;-80
2022/05/17 10:41:12;;;;;;;4.65;2.05;;;;;;;29.05;30.87;101712.78;5086196;28;20576;-81
2022/05/17 10:43:41;;;;;;;3.92;2.05;;;;;;;29.06;30.73;101712.59;5070452;28;20040;-77
2022/05/17 10:46:16;;;;;;;5.57;2.10;;;;;;;29.09;30.31;101714.09;5088436;28;20059;-77
2022/05/17 10:48:58;;;;;;;4.10;1.75;;;;;;;29.10;29.85;101705.50;5066183;28;20656;-78
2022/05/17 10:51:45;;;;;;;4.03;1.60;;;;;;;29.07;30.11;101700.31;5081282;28;20410;-77
2022/05/17 10:54:24;;;;;;;3.15;1.50;;;;;;;29.07;30.46;101691.94;5080592;28;20067;-76
2022/05/17 10:57:18;;;;;;;6.40;1.70;;;;;;;29.10;29.01;101694.31;5085979;28;20075;-76
2022/05/17 11:00:01;;;;;;;4.93;1.70;;;;;;;29.11;29.37;101693.25;5070549;28;20078;-77
2022/05/17 11:02:36;;;;;;;3.22;1.52;;;;;;;29.09;29.83;101695.41;5083797;28;20044;-76
2022/05/17 11:05:36;;;;;;;3.88;1.45;;;;;;;29.11;29.24;101690.47;5090890;28;20044;-76
2022/05/17 11:08:18;;;;;;;3.38;1.60;;;;;;;29.16;28.89;101687.03;5090611;28;20491;-77
2022/05/17 11:10:53;;;;;;;3.70;1.70;;;;;;;29.18;28.84;101684.03;5093350;28;20052;-77
2022/05/17 11:13:37;;;;;;;3.20;1.45;;;;;;;29.22;28.65;101688.19;5090936;28;20048;-77
2022/05/17 11:16:29;;;;;;;3.15;1.50;;;;;;;29.23;29.22;101687.13;5096918;28;20071;-78
2022/05/17 11:19:20;;;;;;;;;;;;;;;28.96;30.29;101681.31;5091688;28;20151;-78
2022/05/17 11:21:54;;;;;;;4.97;1.88;;;;;;;29.26;29.03;101679.16;5096721;28;19951;-77
2022/05/17 11:24:52;;;;;;;2.90;1.40;;;;;;;29.29;28.64;101681.56;5078078;28;20526;-77
2022/05/17 11:27:46;;;;;;;3.58;1.60;;;;;;;29.29;28.44;101680.69;5081872;28;20051;-79
2022/05/17 11:30:34;;;;;;;4.13;1.70;;;;;;;29.30;28.29;101682.44;5069183;28;20068;-78
2022/05/17 11:33:21;;;;;;;3.40;1.48;;;;;;;29.23;28.38;101682.38;5068266;28;20538;-79
2022/05/17 11:36:00;;;;;;;3.60;1.60;;;;;;;29.24;28.41;101686.06;5087240;28;20052;-78
2022/05/17 11:38:36;;;;;;;2.97;1.55;;;;;;;29.19;28.22;101675.47;5071287;28;20043;-78
2022/05/17 11:41:19;;;;;;;3.88;1.27;;;;;;;29.14;28.41;101678.88;5070110;28;20101;-77
2022/05/17 11:43:47;;;;;;;5.28;1.80;;;;;;;29.09;28.60;101677.75;5067986;28;20075;-79
2022/05/17 11:46:29;;;;;;;3.25;1.25;;;;;;;29.07;28.53;101679.91;5083348;28;20048;-78
2022/05/17 11:48:57;;;;;;;2.53;1.17;;;;;;;29.01;28.60;101675.09;5088962;28;20048;-78
2022/05/17 11:51:38;;;;;;;2.90;1.42;;;;;;;29.00;28.70;101671.44;5086496;28;20226;-78
2022/05/17 11:54:10;;;;;;;3.05;1.50;;;;;;;28.96;29.06;101661.75;5071247;28;20036;-78
2022/05/17 11:56:39;;;;;;;3.35;1.40;;;;;;;28.92;29.01;101668.81;5081847;28;20054;-77